sensor_id;sensor_type;location;lat;lon;timestamp;P1;durP1;ratioP1;P2;durP2;ratioP2
14748;SDS011;7466;53.574;9.976;2024-02-26T00:02:14;11.73;;;10.57;;
14748;SDS011;7466;53.574;9.976;2024-02-26T00:04:42;10.90;;;10.03;;
14748;SDS011;7466;53.574;9.976;2024-02-26T00:07:09;10.73;;;9.83;;
14748;SDS011;7466;53.574;9.976;2024-02-26T00:09:36;10.57;;;9.67;;
14748;SDS011;7466;53.574;9.976;2024-02-26T00:12:03;11.30;;;10.30;;
14748;SDS011;7466;53.574;9.976;2024-02-26T00:14:30;11.33;;;10.23;;
14748;SDS011;7466;53.574;9.976;2024-02-26T00:16:59;11.70;;;10.60;;
14748;SDS011;7466;53.574;9.976;2024-02-26T00:19:26;10.63;;;9.70;;
14748;SDS011;7466;53.574;9.976;2024-02-26T00:21:54;10.67;;;9.60;;
14748;SDS011;7466;53.574;9.976;2024-02-26T00:24:21;10.77;;;9.87;;
14748;SDS011;7466;53.574;9.976;2024-02-26T00:26:48;12.17;;;10.43;;
14748;SDS011;7466;53.574;9.976;2024-02-26T00:29:18;11.70;;;10.60;;
14748;SDS011;7466;53.574;9.976;2024-02-26T00:31:44;12.07;;;10.97;;
14748;SDS011;7466;53.574;9.976;2024-02-26T00:34:11;11.63;;;10.43;;
14748;SDS011;7466;53.574;9.976;2024-02-26T00:36:40;13.13;;;11.83;;
14748;SDS011;7466;53.574;9.976;2024-02-26T00:39:08;12.20;;;11.10;;
14748;SDS011;7466;53.574;9.976;2024-02-26T00:41:37;13.33;;;12.13;;
14748;SDS011;7466;53.574;9.976;2024-02-26T00:44:05;13.23;;;11.83;;
14748;SDS011;7466;53.574;9.976;2024-02-26T00:46:32;12.43;;;11.23;;
14748;SDS011;7466;53.574;9.976;2024-02-26T00:48:58;13.93;;;12.73;;
14748;SDS011;7466;53.574;9.976;2024-02-26T00:51:26;13.03;;;11.83;;
14748;SDS011;7466;53.574;9.976;2024-02-26T00:53:53;12.40;;;11.20;;
14748;SDS011;7466;53.574;9.976;2024-02-26T00:56:22;12.90;;;11.60;;
14748;SDS011;7466;53.574;9.976;2024-02-26T00:58:49;12.30;;;11.20;;
14748;SDS011;7466;53.574;9.976;2024-02-26T01:01:16;12.93;;;11.73;;
14748;SDS011;7466;53.574;9.976;2024-02-26T01:03:43;13.93;;;12.13;;
14748;SDS011;7466;53.574;9.976;2024-02-26T01:06:10;14.37;;;12.90;;
14748;SDS011;7466;53.574;9.976;2024-02-26T01:08:37;15.43;;;13.83;;
14748;SDS011;7466;53.574;9.976;2024-02-26T01:11:04;13.93;;;12.67;;
14748;SDS011;7466;53.574;9.976;2024-02-26T01:13:32;13.43;;;12.23;;
14748;SDS011;7466;53.574;9.976;2024-02-26T01:15:59;16.50;;;14.37;;
14748;SDS011;7466;53.574;9.976;2024-02-26T01:18:26;22.43;;;14.83;;
14748;SDS011;7466;53.574;9.976;2024-02-26T01:20:53;15.93;;;14.23;;
14748;SDS011;7466;53.574;9.976;2024-02-26T01:23:20;15.90;;;14.23;;
14748;SDS011;7466;53.574;9.976;2024-02-26T01:25:47;18.20;;;13.90;;
14748;SDS011;7466;53.574;9.976;2024-02-26T01:28:14;14.83;;;13.37;;
14748;SDS011;7466;53.574;9.976;2024-02-26T01:30:42;15.50;;;13.67;;
14748;SDS011;7466;53.574;9.976;2024-02-26T01:33:09;19.57;;;14.70;;
14748;SDS011;7466;53.574;9.976;2024-02-26T01:35:36;17.63;;;14.20;;
14748;SDS011;7466;53.574;9.976;2024-02-26T01:38:02;21.97;;;15.70;;
14748;SDS011;7466;53.574;9.976;2024-02-26T01:40:29;21.13;;;17.33;;
14748;SDS011;7466;53.574;9.976;2024-02-26T01:42:56;18.97;;;15.83;;
14748;SDS011;7466;53.574;9.976;2024-02-26T01:45:23;26.30;;;17.43;;
14748;SDS011;7466;53.574;9.976;2024-02-26T01:47:51;27.00;;;18.07;;
14748;SDS011;7466;53.574;9.976;2024-02-26T01:50:19;24.40;;;16.97;;
14748;SDS011;7466;53.574;9.976;2024-02-26T01:52:47;21.67;;;17.13;;
14748;SDS011;7466;53.574;9.976;2024-02-26T01:55:18;21.50;;;16.40;;
14748;SDS011;7466;53.574;9.976;2024-02-26T01:57:46;24.03;;;16.60;;
14748;SDS011;7466;53.574;9.976;2024-02-26T02:00:16;21.67;;;18.00;;
14748;SDS011;7466;53.574;9.976;2024-02-26T02:02:44;24.37;;;17.90;;
14748;SDS011;7466;53.574;9.976;2024-02-26T02:05:15;21.87;;;17.40;;
14748;SDS011;7466;53.574;9.976;2024-02-26T02:07:43;22.90;;;17.43;;
14748;SDS011;7466;53.574;9.976;2024-02-26T02:10:10;27.30;;;19.67;;
14748;SDS011;7466;53.574;9.976;2024-02-26T02:12:37;27.63;;;20.53;;
14748;SDS011;7466;53.574;9.976;2024-02-26T02:15:05;25.00;;;20.23;;
14748;SDS011;7466;53.574;9.976;2024-02-26T02:17:33;26.63;;;20.10;;
14748;SDS011;7466;53.574;9.976;2024-02-26T02:20:00;24.87;;;20.27;;
14748;SDS011;7466;53.574;9.976;2024-02-26T02:22:28;28.07;;;21.23;;
14748;SDS011;7466;53.574;9.976;2024-02-26T02:24:57;33.30;;;23.63;;
14748;SDS011;7466;53.574;9.976;2024-02-26T02:27:24;30.90;;;21.93;;
14748;SDS011;7466;53.574;9.976;2024-02-26T02:29:51;27.67;;;21.70;;
14748;SDS011;7466;53.574;9.976;2024-02-26T02:32:18;29.07;;;21.90;;
14748;SDS011;7466;53.574;9.976;2024-02-26T02:34:46;32.90;;;23.43;;
14748;SDS011;7466;53.574;9.976;2024-02-26T02:37:13;33.30;;;23.47;;
14748;SDS011;7466;53.574;9.976;2024-02-26T02:39:41;37.90;;;26.37;;
14748;SDS011;7466;53.574;9.976;2024-02-26T02:42:08;34.73;;;26.23;;
14748;SDS011;7466;53.574;9.976;2024-02-26T02:44:35;40.67;;;27.33;;
14748;SDS011;7466;53.574;9.976;2024-02-26T02:47:02;37.47;;;27.37;;
14748;SDS011;7466;53.574;9.976;2024-02-26T02:49:29;36.63;;;26.43;;
14748;SDS011;7466;53.574;9.976;2024-02-26T02:51:56;38.50;;;27.27;;
14748;SDS011;7466;53.574;9.976;2024-02-26T02:54:23;35.63;;;26.90;;
14748;SDS011;7466;53.574;9.976;2024-02-26T02:56:51;37.43;;;27.50;;
14748;SDS011;7466;53.574;9.976;2024-02-26T02:59:19;38.13;;;28.23;;
14748;SDS011;7466;53.574;9.976;2024-02-26T03:01:46;36.03;;;26.07;;
14748;SDS011;7466;53.574;9.976;2024-02-26T03:04:12;35.13;;;26.57;;
14748;SDS011;7466;53.574;9.976;2024-02-26T03:06:39;37.93;;;27.63;;
14748;SDS011;7466;53.574;9.976;2024-02-26T03:09:06;33.27;;;26.67;;
14748;SDS011;7466;53.574;9.976;2024-02-26T03:11:33;35.87;;;27.17;;
14748;SDS011;7466;53.574;9.976;2024-02-26T03:14:01;34.83;;;25.90;;
14748;SDS011;7466;53.574;9.976;2024-02-26T03:16:28;32.67;;;26.03;;
14748;SDS011;7466;53.574;9.976;2024-02-26T03:18:55;34.50;;;26.80;;
14748;SDS011;7466;53.574;9.976;2024-02-26T03:21:22;35.77;;;27.70;;
14748;SDS011;7466;53.574;9.976;2024-02-26T03:23:50;35.47;;;25.93;;
14748;SDS011;7466;53.574;9.976;2024-02-26T03:26:16;37.00;;;27.97;;
14748;SDS011;7466;53.574;9.976;2024-02-26T03:28:43;39.83;;;28.60;;
14748;SDS011;7466;53.574;9.976;2024-02-26T03:31:11;38.63;;;27.77;;
14748;SDS011;7466;53.574;9.976;2024-02-26T03:33:38;40.13;;;27.53;;
14748;SDS011;7466;53.574;9.976;2024-02-26T03:36:05;36.10;;;27.10;;
14748;SDS011;7466;53.574;9.976;2024-02-26T03:38:32;37.80;;;27.20;;
14748;SDS011;7466;53.574;9.976;2024-02-26T03:40:59;37.57;;;28.57;;
14748;SDS011;7466;53.574;9.976;2024-02-26T03:43:26;42.07;;;28.87;;
14748;SDS011;7466;53.574;9.976;2024-02-26T03:45:53;42.77;;;29.90;;
14748;SDS011;7466;53.574;9.976;2024-02-26T03:48:21;44.93;;;30.33;;
14748;SDS011;7466;53.574;9.976;2024-02-26T03:50:47;41.43;;;28.77;;
14748;SDS011;7466;53.574;9.976;2024-02-26T03:53:14;43.13;;;29.00;;
14748;SDS011;7466;53.574;9.976;2024-02-26T03:55:41;41.53;;;29.50;;
14748;SDS011;7466;53.574;9.976;2024-02-26T03:58:08;40.90;;;28.50;;
14748;SDS011;7466;53.574;9.976;2024-02-26T04:00:34;38.33;;;28.10;;
14748;SDS011;7466;53.574;9.976;2024-02-26T04:03:01;42.70;;;29.57;;
14748;SDS011;7466;53.574;9.976;2024-02-26T04:05:30;45.07;;;29.67;;
14748;SDS011;7466;53.574;9.976;2024-02-26T04:07:56;43.60;;;30.77;;
14748;SDS011;7466;53.574;9.976;2024-02-26T04:10:23;48.50;;;31.80;;
14748;SDS011;7466;53.574;9.976;2024-02-26T04:12:50;46.83;;;29.97;;
14748;SDS011;7466;53.574;9.976;2024-02-26T04:15:17;42.33;;;30.23;;
14748;SDS011;7466;53.574;9.976;2024-02-26T04:17:43;42.30;;;29.33;;
14748;SDS011;7466;53.574;9.976;2024-02-26T04:20:13;45.30;;;30.53;;
14748;SDS011;7466;53.574;9.976;2024-02-26T04:22:43;44.93;;;29.73;;
14748;SDS011;7466;53.574;9.976;2024-02-26T04:25:10;43.03;;;28.03;;
14748;SDS011;7466;53.574;9.976;2024-02-26T04:27:37;43.07;;;29.93;;
14748;SDS011;7466;53.574;9.976;2024-02-26T04:30:04;43.20;;;29.37;;
14748;SDS011;7466;53.574;9.976;2024-02-26T04:32:33;48.10;;;30.53;;
14748;SDS011;7466;53.574;9.976;2024-02-26T04:35:00;47.40;;;29.80;;
14748;SDS011;7466;53.574;9.976;2024-02-26T04:37:28;44.87;;;28.93;;
14748;SDS011;7466;53.574;9.976;2024-02-26T04:39:58;46.23;;;29.70;;
14748;SDS011;7466;53.574;9.976;2024-02-26T04:42:25;43.63;;;29.70;;
14748;SDS011;7466;53.574;9.976;2024-02-26T04:44:52;44.03;;;30.00;;
14748;SDS011;7466;53.574;9.976;2024-02-26T04:47:20;44.87;;;28.93;;
14748;SDS011;7466;53.574;9.976;2024-02-26T04:49:47;45.87;;;29.87;;
14748;SDS011;7466;53.574;9.976;2024-02-26T04:52:15;46.73;;;30.07;;
14748;SDS011;7466;53.574;9.976;2024-02-26T04:54:41;49.97;;;30.20;;
14748;SDS011;7466;53.574;9.976;2024-02-26T04:57:09;44.50;;;29.00;;
14748;SDS011;7466;53.574;9.976;2024-02-26T04:59:36;45.97;;;29.97;;
14748;SDS011;7466;53.574;9.976;2024-02-26T05:02:03;47.17;;;30.60;;
14748;SDS011;7466;53.574;9.976;2024-02-26T05:04:30;50.07;;;30.90;;
14748;SDS011;7466;53.574;9.976;2024-02-26T05:06:56;47.20;;;31.10;;
14748;SDS011;7466;53.574;9.976;2024-02-26T05:09:23;51.40;;;29.93;;
14748;SDS011;7466;53.574;9.976;2024-02-26T05:11:50;50.33;;;31.27;;
14748;SDS011;7466;53.574;9.976;2024-02-26T05:14:18;48.10;;;29.67;;
14748;SDS011;7466;53.574;9.976;2024-02-26T05:16:45;44.70;;;29.70;;
14748;SDS011;7466;53.574;9.976;2024-02-26T05:19:12;47.70;;;31.50;;
14748;SDS011;7466;53.574;9.976;2024-02-26T05:21:39;48.50;;;30.90;;
14748;SDS011;7466;53.574;9.976;2024-02-26T05:24:07;48.47;;;31.03;;
14748;SDS011;7466;53.574;9.976;2024-02-26T05:26:34;51.53;;;29.93;;
14748;SDS011;7466;53.574;9.976;2024-02-26T05:29:01;42.97;;;28.97;;
14748;SDS011;7466;53.574;9.976;2024-02-26T05:31:29;48.70;;;30.97;;
14748;SDS011;7466;53.574;9.976;2024-02-26T05:33:56;43.93;;;29.40;;
14748;SDS011;7466;53.574;9.976;2024-02-26T05:36:23;44.67;;;30.13;;
14748;SDS011;7466;53.574;9.976;2024-02-26T05:38:51;43.37;;;29.50;;
14748;SDS011;7466;53.574;9.976;2024-02-26T05:41:17;42.60;;;29.17;;
14748;SDS011;7466;53.574;9.976;2024-02-26T05:43:48;44.13;;;28.47;;
14748;SDS011;7466;53.574;9.976;2024-02-26T05:46:16;44.00;;;28.17;;
14748;SDS011;7466;53.574;9.976;2024-02-26T05:48:44;46.10;;;28.80;;
14748;SDS011;7466;53.574;9.976;2024-02-26T05:51:11;45.27;;;28.83;;
14748;SDS011;7466;53.574;9.976;2024-02-26T05:53:37;42.30;;;28.97;;
14748;SDS011;7466;53.574;9.976;2024-02-26T05:56:05;41.73;;;28.27;;
14748;SDS011;7466;53.574;9.976;2024-02-26T05:58:32;44.43;;;28.83;;
14748;SDS011;7466;53.574;9.976;2024-02-26T06:00:59;46.10;;;30.47;;
14748;SDS011;7466;53.574;9.976;2024-02-26T06:03:26;43.30;;;28.50;;
14748;SDS011;7466;53.574;9.976;2024-02-26T06:05:54;41.40;;;28.27;;
14748;SDS011;7466;53.574;9.976;2024-02-26T06:08:21;42.17;;;28.23;;
14748;SDS011;7466;53.574;9.976;2024-02-26T06:10:48;43.03;;;27.80;;
14748;SDS011;7466;53.574;9.976;2024-02-26T06:13:14;38.33;;;27.87;;
14748;SDS011;7466;53.574;9.976;2024-02-26T06:15:41;41.00;;;27.50;;
14748;SDS011;7466;53.574;9.976;2024-02-26T06:18:08;41.37;;;25.67;;
14748;SDS011;7466;53.574;9.976;2024-02-26T06:20:35;40.17;;;28.17;;
14748;SDS011;7466;53.574;9.976;2024-02-26T06:23:03;38.33;;;27.10;;
14748;SDS011;7466;53.574;9.976;2024-02-26T06:25:31;39.20;;;27.10;;
14748;SDS011;7466;53.574;9.976;2024-02-26T06:27:58;37.70;;;26.77;;
14748;SDS011;7466;53.574;9.976;2024-02-26T06:30:24;37.73;;;25.20;;
14748;SDS011;7466;53.574;9.976;2024-02-26T06:32:51;34.97;;;25.87;;
14748;SDS011;7466;53.574;9.976;2024-02-26T06:35:18;32.23;;;25.00;;
14748;SDS011;7466;53.574;9.976;2024-02-26T06:37:45;39.30;;;26.10;;
14748;SDS011;7466;53.574;9.976;2024-02-26T06:40:13;34.07;;;25.10;;
14748;SDS011;7466;53.574;9.976;2024-02-26T06:42:40;36.70;;;26.67;;
14748;SDS011;7466;53.574;9.976;2024-02-26T06:45:09;38.73;;;26.97;;
14748;SDS011;7466;53.574;9.976;2024-02-26T06:47:35;37.13;;;25.77;;
14748;SDS011;7466;53.574;9.976;2024-02-26T06:50:03;36.33;;;26.13;;
14748;SDS011;7466;53.574;9.976;2024-02-26T06:52:30;37.33;;;25.93;;
14748;SDS011;7466;53.574;9.976;2024-02-26T06:54:57;34.17;;;25.00;;
14748;SDS011;7466;53.574;9.976;2024-02-26T06:57:25;36.40;;;25.60;;
14748;SDS011;7466;53.574;9.976;2024-02-26T06:59:53;36.50;;;25.33;;
14748;SDS011;7466;53.574;9.976;2024-02-26T07:02:19;35.20;;;25.73;;
14748;SDS011;7466;53.574;9.976;2024-02-26T07:04:46;32.97;;;24.03;;
14748;SDS011;7466;53.574;9.976;2024-02-26T07:07:13;36.50;;;25.07;;
14748;SDS011;7466;53.574;9.976;2024-02-26T07:09:41;37.20;;;25.70;;
14748;SDS011;7466;53.574;9.976;2024-02-26T07:12:08;38.43;;;25.67;;
14748;SDS011;7466;53.574;9.976;2024-02-26T07:14:36;41.83;;;27.57;;
14748;SDS011;7466;53.574;9.976;2024-02-26T07:17:03;40.97;;;27.00;;
14748;SDS011;7466;53.574;9.976;2024-02-26T07:19:30;41.57;;;26.63;;
14748;SDS011;7466;53.574;9.976;2024-02-26T07:21:57;43.63;;;26.90;;
14748;SDS011;7466;53.574;9.976;2024-02-26T07:24:23;39.53;;;25.57;;
14748;SDS011;7466;53.574;9.976;2024-02-26T07:26:50;37.17;;;25.40;;
14748;SDS011;7466;53.574;9.976;2024-02-26T07:29:19;40.67;;;26.30;;
14748;SDS011;7466;53.574;9.976;2024-02-26T07:31:47;37.13;;;25.33;;
14748;SDS011;7466;53.574;9.976;2024-02-26T07:34:14;37.10;;;24.87;;
14748;SDS011;7466;53.574;9.976;2024-02-26T07:36:52;40.30;;;25.30;;
14748;SDS011;7466;53.574;9.976;2024-02-26T07:39:22;35.63;;;25.33;;
14748;SDS011;7466;53.574;9.976;2024-02-26T07:41:48;37.27;;;25.13;;
14748;SDS011;7466;53.574;9.976;2024-02-26T07:44:17;35.00;;;24.83;;
14748;SDS011;7466;53.574;9.976;2024-02-26T07:46:44;38.87;;;25.13;;
14748;SDS011;7466;53.574;9.976;2024-02-26T07:49:12;41.57;;;25.60;;
14748;SDS011;7466;53.574;9.976;2024-02-26T07:51:39;36.37;;;25.63;;
14748;SDS011;7466;53.574;9.976;2024-02-26T07:54:07;31.57;;;22.80;;
14748;SDS011;7466;53.574;9.976;2024-02-26T07:56:34;33.60;;;24.97;;
14748;SDS011;7466;53.574;9.976;2024-02-26T07:59:00;33.77;;;24.20;;
14748;SDS011;7466;53.574;9.976;2024-02-26T08:01:27;31.07;;;23.03;;
14748;SDS011;7466;53.574;9.976;2024-02-26T08:03:54;33.83;;;24.03;;
14748;SDS011;7466;53.574;9.976;2024-02-26T08:06:23;30.63;;;23.17;;
14748;SDS011;7466;53.574;9.976;2024-02-26T08:08:50;30.10;;;22.27;;
14748;SDS011;7466;53.574;9.976;2024-02-26T08:11:17;26.97;;;21.43;;
14748;SDS011;7466;53.574;9.976;2024-02-26T08:13:44;34.83;;;23.03;;
14748;SDS011;7466;53.574;9.976;2024-02-26T08:16:13;30.77;;;22.43;;
14748;SDS011;7466;53.574;9.976;2024-02-26T08:18:39;30.77;;;22.83;;
14748;SDS011;7466;53.574;9.976;2024-02-26T08:21:06;34.37;;;22.40;;
14748;SDS011;7466;53.574;9.976;2024-02-26T08:23:35;31.43;;;22.50;;
14748;SDS011;7466;53.574;9.976;2024-02-26T08:26:01;29.33;;;22.07;;
14748;SDS011;7466;53.574;9.976;2024-02-26T08:28:29;30.07;;;22.57;;
14748;SDS011;7466;53.574;9.976;2024-02-26T08:30:56;32.83;;;23.57;;
14748;SDS011;7466;53.574;9.976;2024-02-26T08:33:22;29.47;;;21.83;;
14748;SDS011;7466;53.574;9.976;2024-02-26T08:35:49;29.07;;;21.80;;
14748;SDS011;7466;53.574;9.976;2024-02-26T08:38:16;28.37;;;21.33;;
14748;SDS011;7466;53.574;9.976;2024-02-26T08:40:44;27.57;;;21.70;;
14748;SDS011;7466;53.574;9.976;2024-02-26T08:43:11;25.87;;;20.70;;
14748;SDS011;7466;53.574;9.976;2024-02-26T08:45:38;25.67;;;19.80;;
14748;SDS011;7466;53.574;9.976;2024-02-26T08:48:05;24.87;;;20.07;;
14748;SDS011;7466;53.574;9.976;2024-02-26T08:50:32;23.33;;;19.47;;
14748;SDS011;7466;53.574;9.976;2024-02-26T08:53:00;25.83;;;18.67;;
14748;SDS011;7466;53.574;9.976;2024-02-26T08:55:26;26.23;;;20.27;;
14748;SDS011;7466;53.574;9.976;2024-02-26T08:57:55;27.13;;;20.67;;
14748;SDS011;7466;53.574;9.976;2024-02-26T09:00:21;24.27;;;20.10;;
14748;SDS011;7466;53.574;9.976;2024-02-26T09:02:48;28.37;;;20.27;;
14748;SDS011;7466;53.574;9.976;2024-02-26T09:05:15;24.87;;;20.00;;
14748;SDS011;7466;53.574;9.976;2024-02-26T09:07:42;23.80;;;19.20;;
14748;SDS011;7466;53.574;9.976;2024-02-26T09:10:09;23.03;;;17.83;;
14748;SDS011;7466;53.574;9.976;2024-02-26T09:12:36;23.10;;;17.47;;
14748;SDS011;7466;53.574;9.976;2024-02-26T09:15:05;21.30;;;17.43;;
14748;SDS011;7466;53.574;9.976;2024-02-26T09:17:32;19.80;;;17.70;;
14748;SDS011;7466;53.574;9.976;2024-02-26T09:19:59;21.53;;;17.33;;
14748;SDS011;7466;53.574;9.976;2024-02-26T09:22:26;21.87;;;17.43;;
14748;SDS011;7466;53.574;9.976;2024-02-26T09:24:53;20.20;;;16.67;;
14748;SDS011;7466;53.574;9.976;2024-02-26T09:27:20;20.40;;;15.97;;
14748;SDS011;7466;53.574;9.976;2024-02-26T09:29:47;17.73;;;15.83;;
14748;SDS011;7466;53.574;9.976;2024-02-26T09:32:15;18.37;;;15.67;;
14748;SDS011;7466;53.574;9.976;2024-02-26T09:34:42;17.93;;;16.03;;
14748;SDS011;7466;53.574;9.976;2024-02-26T09:37:09;19.27;;;16.67;;
14748;SDS011;7466;53.574;9.976;2024-02-26T09:39:36;17.00;;;15.20;;
14748;SDS011;7466;53.574;9.976;2024-02-26T09:42:04;20.33;;;16.57;;
14748;SDS011;7466;53.574;9.976;2024-02-26T09:44:34;21.70;;;16.47;;
14748;SDS011;7466;53.574;9.976;2024-02-26T09:47:07;18.57;;;15.43;;
14748;SDS011;7466;53.574;9.976;2024-02-26T09:49:36;20.90;;;15.90;;
14748;SDS011;7466;53.574;9.976;2024-02-26T09:52:04;19.53;;;16.00;;
14748;SDS011;7466;53.574;9.976;2024-02-26T09:54:32;17.30;;;15.07;;
14748;SDS011;7466;53.574;9.976;2024-02-26T09:56:59;19.03;;;16.70;;
14748;SDS011;7466;53.574;9.976;2024-02-26T09:59:29;20.27;;;16.37;;
14748;SDS011;7466;53.574;9.976;2024-02-26T10:02:00;21.47;;;16.77;;
14748;SDS011;7466;53.574;9.976;2024-02-26T10:04:28;25.63;;;18.93;;
14748;SDS011;7466;53.574;9.976;2024-02-26T10:06:56;23.70;;;18.63;;
14748;SDS011;7466;53.574;9.976;2024-02-26T10:09:25;23.13;;;18.60;;
14748;SDS011;7466;53.574;9.976;2024-02-26T10:11:53;26.63;;;20.10;;
14748;SDS011;7466;53.574;9.976;2024-02-26T10:14:23;26.87;;;18.77;;
14748;SDS011;7466;53.574;9.976;2024-02-26T10:16:49;24.93;;;19.50;;
14748;SDS011;7466;53.574;9.976;2024-02-26T10:19:24;23.37;;;18.40;;
14748;SDS011;7466;53.574;9.976;2024-02-26T10:21:53;24.30;;;18.83;;
14748;SDS011;7466;53.574;9.976;2024-02-26T10:24:23;21.20;;;17.70;;
14748;SDS011;7466;53.574;9.976;2024-02-26T10:26:50;22.97;;;18.47;;
14748;SDS011;7466;53.574;9.976;2024-02-26T10:29:18;22.27;;;18.17;;
14748;SDS011;7466;53.574;9.976;2024-02-26T10:31:45;22.90;;;17.23;;
14748;SDS011;7466;53.574;9.976;2024-02-26T10:34:12;20.20;;;16.47;;
14748;SDS011;7466;53.574;9.976;2024-02-26T10:36:40;20.80;;;16.47;;
14748;SDS011;7466;53.574;9.976;2024-02-26T10:39:11;20.80;;;16.73;;
14748;SDS011;7466;53.574;9.976;2024-02-26T10:41:39;21.27;;;15.90;;
14748;SDS011;7466;53.574;9.976;2024-02-26T10:44:08;20.43;;;16.30;;
14748;SDS011;7466;53.574;9.976;2024-02-26T10:46:37;20.80;;;16.67;;
14748;SDS011;7466;53.574;9.976;2024-02-26T10:49:04;22.30;;;16.97;;
14748;SDS011;7466;53.574;9.976;2024-02-26T10:51:34;21.90;;;17.10;;
14748;SDS011;7466;53.574;9.976;2024-02-26T10:54:04;20.77;;;16.73;;
14748;SDS011;7466;53.574;9.976;2024-02-26T10:56:36;22.58;;;19.88;;
14748;SDS011;7466;53.574;9.976;2024-02-26T10:59:04;20.60;;;17.40;;
14748;SDS011;7466;53.574;9.976;2024-02-26T11:01:35;20.10;;;16.33;;
14748;SDS011;7466;53.574;9.976;2024-02-26T11:04:03;20.83;;;16.97;;
14748;SDS011;7466;53.574;9.976;2024-02-26T11:06:31;18.13;;;16.20;;
14748;SDS011;7466;53.574;9.976;2024-02-26T11:08:59;19.67;;;16.17;;
14748;SDS011;7466;53.574;9.976;2024-02-26T11:11:33;19.10;;;15.73;;
14748;SDS011;7466;53.574;9.976;2024-02-26T11:14:02;18.00;;;14.87;;
14748;SDS011;7466;53.574;9.976;2024-02-26T11:16:30;17.00;;;15.07;;
14748;SDS011;7466;53.574;9.976;2024-02-26T11:18:57;16.23;;;14.50;;
14748;SDS011;7466;53.574;9.976;2024-02-26T11:21:26;15.37;;;13.80;;
14748;SDS011;7466;53.574;9.976;2024-02-26T11:24:03;16.00;;;14.07;;
14748;SDS011;7466;53.574;9.976;2024-02-26T11:26:31;18.07;;;15.40;;
14748;SDS011;7466;53.574;9.976;2024-02-26T11:29:02;19.83;;;15.73;;
14748;SDS011;7466;53.574;9.976;2024-02-26T11:31:30;16.27;;;14.53;;
14748;SDS011;7466;53.574;9.976;2024-02-26T11:33:57;16.93;;;13.80;;
14748;SDS011;7466;53.574;9.976;2024-02-26T11:36:24;15.00;;;13.43;;
14748;SDS011;7466;53.574;9.976;2024-02-26T11:38:51;17.80;;;14.03;;
14748;SDS011;7466;53.574;9.976;2024-02-26T11:41:18;14.07;;;12.67;;
14748;SDS011;7466;53.574;9.976;2024-02-26T11:43:49;12.90;;;11.70;;
14748;SDS011;7466;53.574;9.976;2024-02-26T11:46:25;14.50;;;13.00;;
14748;SDS011;7466;53.574;9.976;2024-02-26T11:48:55;12.57;;;11.47;;
14748;SDS011;7466;53.574;9.976;2024-02-26T11:51:27;13.57;;;12.27;;
14748;SDS011;7466;53.574;9.976;2024-02-26T11:53:58;14.50;;;12.50;;
14748;SDS011;7466;53.574;9.976;2024-02-26T11:56:29;13.17;;;11.77;;
14748;SDS011;7466;53.574;9.976;2024-02-26T11:59:01;13.10;;;11.80;;
14748;SDS011;7466;53.574;9.976;2024-02-26T12:04:20;13.67;;;12.30;;
14748;SDS011;7466;53.574;9.976;2024-02-26T12:06:54;12.80;;;11.60;;
14748;SDS011;7466;53.574;9.976;2024-02-26T12:09:32;13.60;;;12.20;;
14748;SDS011;7466;53.574;9.976;2024-02-26T12:12:02;12.27;;;10.73;;
14748;SDS011;7466;53.574;9.976;2024-02-26T12:14:32;13.13;;;11.93;;
14748;SDS011;7466;53.574;9.976;2024-02-26T12:17:02;13.90;;;12.50;;
14748;SDS011;7466;53.574;9.976;2024-02-26T12:19:32;12.67;;;11.47;;
14748;SDS011;7466;53.574;9.976;2024-02-26T12:21:59;13.40;;;12.00;;
14748;SDS011;7466;53.574;9.976;2024-02-26T12:24:26;13.03;;;11.73;;
14748;SDS011;7466;53.574;9.976;2024-02-26T12:26:53;13.73;;;12.33;;
14748;SDS011;7466;53.574;9.976;2024-02-26T12:29:20;15.47;;;13.17;;
14748;SDS011;7466;53.574;9.976;2024-02-26T12:31:46;13.73;;;12.43;;
14748;SDS011;7466;53.574;9.976;2024-02-26T12:34:15;14.27;;;12.87;;
14748;SDS011;7466;53.574;9.976;2024-02-26T12:36:42;15.10;;;13.50;;
14748;SDS011;7466;53.574;9.976;2024-02-26T12:39:09;15.23;;;13.63;;
14748;SDS011;7466;53.574;9.976;2024-02-26T12:41:37;14.23;;;12.73;;
14748;SDS011;7466;53.574;9.976;2024-02-26T12:44:05;15.13;;;13.50;;
14748;SDS011;7466;53.574;9.976;2024-02-26T12:46:32;14.73;;;13.23;;
14748;SDS011;7466;53.574;9.976;2024-02-26T12:48:59;14.97;;;13.37;;
14748;SDS011;7466;53.574;9.976;2024-02-26T12:51:27;14.50;;;13.10;;
14748;SDS011;7466;53.574;9.976;2024-02-26T12:53:54;14.30;;;12.87;;
14748;SDS011;7466;53.574;9.976;2024-02-26T12:56:22;13.63;;;12.33;;
14748;SDS011;7466;53.574;9.976;2024-02-26T12:58:50;13.93;;;12.53;;
14748;SDS011;7466;53.574;9.976;2024-02-26T13:01:18;13.33;;;12.13;;
14748;SDS011;7466;53.574;9.976;2024-02-26T13:03:48;13.40;;;12.10;;
14748;SDS011;7466;53.574;9.976;2024-02-26T13:06:16;13.37;;;12.07;;
14748;SDS011;7466;53.574;9.976;2024-02-26T13:08:44;14.70;;;13.20;;
14748;SDS011;7466;53.574;9.976;2024-02-26T13:11:14;14.53;;;13.03;;
14748;SDS011;7466;53.574;9.976;2024-02-26T13:13:41;14.07;;;12.13;;
14748;SDS011;7466;53.574;9.976;2024-02-26T13:16:10;13.30;;;12.00;;
14748;SDS011;7466;53.574;9.976;2024-02-26T13:18:40;13.17;;;11.87;;
14748;SDS011;7466;53.574;9.976;2024-02-26T13:21:08;12.57;;;11.37;;
14748;SDS011;7466;53.574;9.976;2024-02-26T13:23:36;13.17;;;11.57;;
14748;SDS011;7466;53.574;9.976;2024-02-26T13:26:04;14.90;;;12.57;;
14748;SDS011;7466;53.574;9.976;2024-02-26T13:28:31;14.70;;;12.43;;
14748;SDS011;7466;53.574;9.976;2024-02-26T13:30:58;14.07;;;12.57;;
14748;SDS011;7466;53.574;9.976;2024-02-26T13:33:27;13.53;;;12.23;;
14748;SDS011;7466;53.574;9.976;2024-02-26T13:35:54;14.27;;;11.77;;
14748;SDS011;7466;53.574;9.976;2024-02-26T13:38:24;13.40;;;12.10;;
14748;SDS011;7466;53.574;9.976;2024-02-26T13:41:00;12.27;;;11.17;;
14748;SDS011;7466;53.574;9.976;2024-02-26T13:43:28;12.57;;;11.23;;
14748;SDS011;7466;53.574;9.976;2024-02-26T13:45:55;13.17;;;11.70;;
14748;SDS011;7466;53.574;9.976;2024-02-26T13:48:22;13.23;;;11.90;;
14748;SDS011;7466;53.574;9.976;2024-02-26T13:50:51;13.63;;;12.33;;
14748;SDS011;7466;53.574;9.976;2024-02-26T13:53:17;12.53;;;11.33;;
14748;SDS011;7466;53.574;9.976;2024-02-26T13:55:44;13.50;;;12.10;;
14748;SDS011;7466;53.574;9.976;2024-02-26T13:58:11;14.27;;;12.80;;
14748;SDS011;7466;53.574;9.976;2024-02-26T14:00:40;15.53;;;13.00;;
14748;SDS011;7466;53.574;9.976;2024-02-26T14:03:07;15.20;;;13.27;;
14748;SDS011;7466;53.574;9.976;2024-02-26T14:05:34;15.13;;;13.50;;
14748;SDS011;7466;53.574;9.976;2024-02-26T14:08:01;14.00;;;12.60;;
14748;SDS011;7466;53.574;9.976;2024-02-26T14:10:38;14.87;;;13.37;;
14748;SDS011;7466;53.574;9.976;2024-02-26T14:13:05;13.93;;;12.20;;
14748;SDS011;7466;53.574;9.976;2024-02-26T14:15:36;13.37;;;12.07;;
14748;SDS011;7466;53.574;9.976;2024-02-26T14:18:06;13.40;;;12.10;;
14748;SDS011;7466;53.574;9.976;2024-02-26T14:20:33;13.27;;;11.87;;
14748;SDS011;7466;53.574;9.976;2024-02-26T14:23:04;14.13;;;12.13;;
14748;SDS011;7466;53.574;9.976;2024-02-26T14:25:30;13.67;;;12.30;;
14748;SDS011;7466;53.574;9.976;2024-02-26T14:27:57;15.30;;;13.70;;
14748;SDS011;7466;53.574;9.976;2024-02-26T14:30:24;14.90;;;13.20;;
14748;SDS011;7466;53.574;9.976;2024-02-26T14:32:52;14.73;;;13.20;;
14748;SDS011;7466;53.574;9.976;2024-02-26T14:35:21;15.17;;;13.67;;
14748;SDS011;7466;53.574;9.976;2024-02-26T14:37:50;14.67;;;13.23;;
14748;SDS011;7466;53.574;9.976;2024-02-26T14:40:17;16.37;;;14.40;;
14748;SDS011;7466;53.574;9.976;2024-02-26T14:42:44;16.53;;;14.33;;